createdAt,value
2023-04-17T00:02:11.151Z,15.03
2023-04-17T00:04:41.131Z,15.45
2023-04-17T00:07:09.477Z,15.31
2023-04-17T00:09:36.906Z,14.76
2023-04-17T00:12:04.743Z,14.95
2023-04-17T00:14:32.184Z,15.05
2023-04-17T00:16:59.543Z,15.36
2023-04-17T00:19:27.241Z,15.00
2023-04-17T00:21:54.634Z,15.35
2023-04-17T00:24:22.047Z,14.53
2023-04-17T00:26:49.791Z,15.29
2023-04-17T00:29:17.267Z,15.40
2023-04-17T00:31:44.720Z,15.56
2023-04-17T00:34:12.400Z,15.52
2023-04-17T00:36:39.961Z,15.52
2023-04-17T00:39:07.379Z,15.55
2023-04-17T00:41:35.047Z,15.58
2023-04-17T00:44:02.439Z,15.35
2023-04-17T00:46:30.717Z,15.62
2023-04-17T00:48:58.435Z,15.66
2023-04-17T00:51:25.866Z,15.60
2023-04-17T00:53:53.839Z,15.61
2023-04-17T00:56:21.717Z,15.73
2023-04-17T00:58:49.163Z,15.68
2023-04-17T01:01:17.956Z,15.63
2023-04-17T01:03:46.262Z,15.49
2023-04-17T01:06:13.937Z,15.67
2023-04-17T01:08:43.856Z,15.53
2023-04-17T01:11:13.025Z,15.52
2023-04-17T01:13:52.464Z,15.64
2023-04-17T01:16:20.830Z,15.78
2023-04-17T01:18:48.426Z,15.57
2023-04-17T01:21:16.655Z,15.79
2023-04-17T01:23:52.101Z,15.86
2023-04-17T01:26:23.864Z,15.62
2023-04-17T01:28:54.031Z,15.57
2023-04-17T01:31:22.507Z,15.71
2023-04-17T01:33:50.700Z,15.59
2023-04-17T01:36:18.995Z,15.77
2023-04-17T01:38:46.468Z,15.83
2023-04-17T01:41:13.911Z,15.92
2023-04-17T01:43:46.984Z,15.69
2023-04-17T01:46:14.421Z,15.49
2023-04-17T01:48:42.177Z,15.82
2023-04-17T01:51:09.621Z,15.84
2023-04-17T01:53:39.005Z,15.93
2023-04-17T01:56:07.128Z,15.94
2023-04-17T01:58:35.511Z,15.79
2023-04-17T02:01:03.005Z,15.70
2023-04-17T02:03:31.504Z,15.85
2023-04-17T02:05:59.109Z,15.84
2023-04-17T02:08:27.162Z,15.89
2023-04-17T02:10:54.897Z,15.88
2023-04-17T02:13:22.325Z,15.91
2023-04-17T02:15:49.764Z,15.84
2023-04-17T02:18:17.581Z,15.58
2023-04-17T02:20:45.287Z,15.56
2023-04-17T02:23:12.834Z,15.27
2023-04-17T02:25:40.268Z,15.19
2023-04-17T02:28:07.939Z,15.33
2023-04-17T02:30:35.428Z,15.27
2023-04-17T02:33:02.867Z,15.07
2023-04-17T02:35:31.772Z,15.18
2023-04-17T02:37:59.590Z,15.36
2023-04-17T02:40:27.396Z,15.07
2023-04-17T02:42:55.502Z,15.36
2023-04-17T02:45:22.874Z,15.28
2023-04-17T02:47:50.564Z,14.99
2023-04-17T02:50:18.446Z,15.16
2023-04-17T02:52:47.086Z,14.99
2023-04-17T02:55:14.498Z,15.25
2023-04-17T02:57:42.176Z,15.46
2023-04-17T03:00:14.138Z,15.23
2023-04-17T03:02:42.208Z,15.39
2023-04-17T03:05:11.571Z,15.46
2023-04-17T03:07:38.987Z,15.43
2023-04-17T03:10:08.560Z,15.64
2023-04-17T03:12:36.161Z,15.57
2023-04-17T03:15:03.747Z,15.58
2023-04-17T03:17:31.454Z,15.14
2023-04-17T03:19:59.749Z,15.42
2023-04-17T03:22:27.193Z,15.31
2023-04-17T03:24:54.942Z,15.15
2023-04-17T03:27:24.749Z,15.47
2023-04-17T03:29:54.592Z,15.60
2023-04-17T03:32:22.632Z,15.75
2023-04-17T03:34:50.197Z,15.77
2023-04-17T03:37:17.658Z,15.76
2023-04-17T03:39:45.452Z,15.73
2023-04-17T03:42:14.709Z,15.28
2023-04-17T03:44:42.310Z,15.43
2023-04-17T03:47:11.675Z,15.54
2023-04-17T03:49:40.957Z,15.60
2023-04-17T03:52:08.335Z,15.80
2023-04-17T03:54:36.018Z,15.77
2023-04-17T03:57:04.068Z,15.54
2023-04-17T03:59:31.854Z,15.82
2023-04-17T04:01:59.819Z,15.76
2023-04-17T04:04:28.194Z,15.61
2023-04-17T04:06:58.042Z,15.65
2023-04-17T04:09:26.179Z,16.07
2023-04-17T04:11:53.962Z,16.05
2023-04-17T04:14:21.446Z,16.03
2023-04-17T04:16:49.244Z,15.98
2023-04-17T04:19:17.213Z,16.03
2023-04-17T04:21:45.142Z,15.92
2023-04-17T04:24:14.356Z,15.80
2023-04-17T04:26:43.141Z,15.63
2023-04-17T04:29:11.850Z,15.88
2023-04-17T04:31:40.691Z,16.04
2023-04-17T04:34:09.729Z,16.01
2023-04-17T04:36:41.959Z,15.94
2023-04-17T04:39:10.268Z,15.82
2023-04-17T04:41:38.372Z,16.07
2023-04-17T04:44:06.029Z,16.22
2023-04-17T04:46:34.915Z,16.21
2023-04-17T04:49:03.118Z,15.99
2023-04-17T04:51:32.101Z,15.89
2023-04-17T04:53:59.846Z,15.87
2023-04-17T04:56:30.431Z,15.77
2023-04-17T04:58:59.118Z,15.58
2023-04-17T05:01:28.009Z,15.75
2023-04-17T05:03:56.108Z,15.69
2023-04-17T05:06:25.134Z,15.57
2023-04-17T05:08:53.587Z,15.50
2023-04-17T05:11:21.311Z,15.37
2023-04-17T05:13:48.848Z,15.50
2023-04-17T05:16:17.576Z,15.70
2023-04-17T05:18:48.020Z,15.79
2023-04-17T05:21:15.975Z,15.77
2023-04-17T05:23:44.155Z,15.94
2023-04-17T05:26:11.800Z,15.22
2023-04-17T05:28:40.994Z,15.75
2023-04-17T05:31:08.938Z,15.89
2023-04-17T05:33:36.769Z,15.21
2023-04-17T05:36:06.144Z,15.38
2023-04-17T05:38:34.557Z,15.95
2023-04-17T05:41:08.379Z,16.30
2023-04-17T05:43:37.669Z,16.13
2023-04-17T05:46:06.010Z,16.11
2023-04-17T05:48:34.217Z,16.49
2023-04-17T05:51:03.190Z,16.58
2023-04-17T05:53:33.259Z,16.23
2023-04-17T05:56:01.803Z,16.24
2023-04-17T05:58:30.522Z,16.50
2023-04-17T06:00:58.488Z,16.59
2023-04-17T06:03:27.168Z,16.73
2023-04-17T06:05:57.244Z,16.70
2023-04-17T06:08:26.140Z,16.79
2023-04-17T06:10:56.014Z,16.92
2023-04-17T06:13:24.483Z,17.14
2023-04-17T06:15:52.397Z,17.16
2023-04-17T06:18:20.113Z,17.37
2023-04-17T06:20:47.737Z,17.20
2023-04-17T06:23:15.578Z,17.18
2023-04-17T06:25:43.281Z,17.52
2023-04-17T06:28:10.740Z,17.46
2023-04-17T06:30:38.370Z,17.84
2023-04-17T06:33:07.287Z,17.85
2023-04-17T06:35:35.372Z,17.56
2023-04-17T06:38:03.458Z,17.63
2023-04-17T06:40:31.579Z,17.42
2023-04-17T06:42:59.039Z,17.38
2023-04-17T06:45:28.180Z,17.52
2023-04-17T06:47:56.809Z,17.22
2023-04-17T06:50:24.374Z,17.70
2023-04-17T06:52:51.877Z,17.61
2023-04-17T06:55:19.523Z,17.82
2023-04-17T06:57:46.881Z,17.56
2023-04-17T07:00:14.855Z,17.30
2023-04-17T07:02:42.629Z,17.37
2023-04-17T07:05:10.430Z,17.50
2023-04-17T07:07:37.904Z,16.97
2023-04-17T07:10:06.855Z,17.17
2023-04-17T07:12:34.261Z,16.93
2023-04-17T07:15:01.822Z,17.18
2023-04-17T07:17:29.643Z,17.42
2023-04-17T07:19:57.119Z,17.28
2023-04-17T07:22:26.605Z,17.72
2023-04-17T07:24:55.224Z,17.54
2023-04-17T07:27:22.655Z,17.75
2023-04-17T07:29:54.630Z,17.83
2023-04-17T07:32:24.382Z,17.99
2023-04-17T07:34:52.086Z,18.00
2023-04-17T07:37:19.682Z,18.09
2023-04-17T07:39:50.886Z,18.09
2023-04-17T07:42:18.363Z,18.05
2023-04-17T07:44:46.384Z,18.32
2023-04-17T07:47:14.319Z,18.16
2023-04-17T07:49:41.877Z,17.76
2023-04-17T07:52:09.292Z,17.15
2023-04-17T07:54:36.943Z,17.35
2023-04-17T07:57:04.473Z,17.48
2023-04-17T07:59:31.861Z,17.88
2023-04-17T08:01:59.746Z,17.47
2023-04-17T08:04:27.619Z,17.34
2023-04-17T08:06:55.347Z,17.57
2023-04-17T08:09:22.778Z,17.05
2023-04-17T08:11:57.599Z,17.43
2023-04-17T08:14:25.677Z,17.66
2023-04-17T08:16:53.485Z,18.33
2023-04-17T08:19:21.004Z,18.65
2023-04-17T08:21:48.850Z,18.32
2023-04-17T08:24:19.797Z,18.56
2023-04-17T08:26:47.898Z,18.70
2023-04-17T08:29:15.873Z,18.51
2023-04-17T08:31:43.432Z,18.91
2023-04-17T08:34:14.956Z,18.91
2023-04-17T08:36:43.417Z,19.12
2023-04-17T08:39:12.426Z,18.64
2023-04-17T08:41:48.053Z,19.05
2023-04-17T08:44:20.214Z,19.20
2023-04-17T08:46:48.518Z,18.99
2023-04-17T08:49:16.789Z,18.75
2023-04-17T08:51:44.266Z,19.33
2023-04-17T08:54:11.757Z,19.80
2023-04-17T08:56:39.422Z,20.02
2023-04-17T08:59:06.848Z,19.59
2023-04-17T09:01:34.978Z,19.85
2023-04-17T09:04:02.891Z,19.92
2023-04-17T09:06:48.780Z,19.29
2023-04-17T09:09:16.568Z,19.10
2023-04-17T09:11:43.990Z,18.99
2023-04-17T09:14:30.412Z,19.14
2023-04-17T09:16:58.157Z,19.47
2023-04-17T09:19:25.965Z,19.31
2023-04-17T09:21:54.766Z,19.40
2023-04-17T09:24:43.010Z,19.03
2023-04-17T09:27:27.071Z,19.16
2023-04-17T09:30:03.599Z,19.33
2023-04-17T09:32:33.543Z,19.02
2023-04-17T09:35:03.594Z,19.38
2023-04-17T09:37:52.036Z,19.95
2023-04-17T09:40:22.906Z,19.14
2023-04-17T09:43:01.262Z,19.92
2023-04-17T09:45:35.615Z,19.22
2023-04-17T09:48:07.803Z,19.51
2023-04-17T09:50:37.304Z,18.80
2023-04-17T09:53:07.379Z,19.20
2023-04-17T09:55:37.020Z,19.74
2023-04-17T09:58:06.399Z,19.84
2023-04-17T10:00:33.970Z,19.29
2023-04-17T10:03:01.893Z,19.26
2023-04-17T10:05:31.605Z,19.25
2023-04-17T10:07:59.141Z,18.50
2023-04-17T10:10:32.408Z,18.77
2023-04-17T10:13:03.102Z,18.76
2023-04-17T10:15:31.286Z,19.21
2023-04-17T10:18:19.987Z,19.53
2023-04-17T10:20:50.208Z,19.47
2023-04-17T10:23:32.874Z,19.59
2023-04-17T10:26:25.363Z,19.81
2023-04-17T10:28:54.325Z,19.62
2023-04-17T10:31:23.656Z,19.64
2023-04-17T10:33:52.761Z,19.38
2023-04-17T10:36:40.782Z,19.21
2023-04-17T10:39:20.588Z,19.57
2023-04-17T10:42:04.945Z,19.48
2023-04-17T10:44:35.974Z,19.31
2023-04-17T10:47:07.596Z,19.28
2023-04-17T10:50:08.658Z,19.28
2023-04-17T10:52:42.162Z,19.40
2023-04-17T10:55:15.986Z,19.25
2023-04-17T10:57:58.753Z,19.50
2023-04-17T11:00:37.337Z,19.75
2023-04-17T11:03:06.227Z,19.63
2023-04-17T11:05:35.929Z,18.63
2023-04-17T11:08:03.599Z,18.84
2023-04-17T11:10:35.704Z,19.08
2023-04-17T11:13:03.107Z,18.97
2023-04-17T11:15:32.289Z,19.53
2023-04-17T11:18:00.692Z,19.13
2023-04-17T11:20:30.190Z,18.48
2023-04-17T11:23:02.445Z,19.31
2023-04-17T11:25:31.751Z,19.13
2023-04-17T11:28:05.763Z,18.47
2023-04-17T11:30:35.609Z,18.65
2023-04-17T11:33:05.217Z,19.21
2023-04-17T11:35:37.443Z,18.66
2023-04-17T11:38:22.190Z,18.99
2023-04-17T11:40:54.950Z,18.96
2023-04-17T11:43:23.639Z,18.64
2023-04-17T11:45:58.413Z,18.85
2023-04-17T11:48:27.172Z,18.91
2023-04-17T11:51:06.456Z,18.71
2023-04-17T11:53:35.394Z,18.63
2023-04-17T11:56:16.094Z,18.66
2023-04-17T11:58:47.588Z,18.73
2023-04-17T12:01:15.467Z,19.18
2023-04-17T12:03:45.457Z,19.31
2023-04-17T12:06:13.612Z,18.99
2023-04-17T12:08:47.919Z,18.73
2023-04-17T12:11:35.947Z,18.88
2023-04-17T12:14:05.545Z,19.05
2023-04-17T12:16:33.367Z,18.68
2023-04-17T12:19:00.980Z,18.98
2023-04-17T12:21:28.460Z,19.09
2023-04-17T12:23:56.167Z,19.09
2023-04-17T12:26:25.284Z,19.27
2023-04-17T12:28:52.750Z,19.40
2023-04-17T12:31:20.481Z,19.24
2023-04-17T12:33:47.946Z,19.37
2023-04-17T12:36:15.492Z,19.74
2023-04-17T12:38:43.148Z,19.95
2023-04-17T12:41:10.769Z,19.78
2023-04-17T12:43:38.281Z,19.51
2023-04-17T12:46:06.100Z,19.47
2023-04-17T12:48:34.104Z,19.56
2023-04-17T12:51:01.661Z,19.65
2023-04-17T12:53:30.056Z,19.33
2023-04-17T12:55:57.646Z,19.89
2023-04-17T12:58:25.473Z,19.39
2023-04-17T13:00:53.133Z,19.33
2023-04-17T13:03:20.900Z,19.62
2023-04-17T13:05:49.014Z,19.72
2023-04-17T13:08:16.652Z,19.63
2023-04-17T13:10:44.177Z,20.33
2023-04-17T13:13:11.623Z,20.09
2023-04-17T13:15:39.401Z,20.32
2023-04-17T13:18:08.162Z,20.63
2023-04-17T13:20:35.890Z,19.75
2023-04-17T13:23:03.588Z,20.32
2023-04-17T13:25:32.167Z,20.83
2023-04-17T13:28:00.209Z,20.44
2023-04-17T13:30:27.959Z,20.32
2023-04-17T13:32:55.519Z,20.52
2023-04-17T13:35:22.965Z,20.93
2023-04-17T13:37:50.605Z,20.55
2023-04-17T13:40:18.029Z,20.35
2023-04-17T13:42:45.381Z,20.69
2023-04-17T13:45:13.408Z,20.34
2023-04-17T13:47:40.888Z,19.54
2023-04-17T13:50:09.101Z,20.00
2023-04-17T13:52:36.786Z,20.30
2023-04-17T13:55:04.481Z,19.68
2023-04-17T13:57:31.935Z,19.43
2023-04-17T13:59:59.622Z,19.61
2023-04-17T14:02:27.157Z,20.00
2023-04-17T14:04:55.387Z,19.34
2023-04-17T14:07:22.930Z,18.66
2023-04-17T14:09:50.287Z,17.64
2023-04-17T14:12:20.874Z,18.04
2023-04-17T14:14:48.309Z,17.92
2023-04-17T14:17:15.959Z,17.96
2023-04-17T14:19:43.662Z,17.94
2023-04-17T14:22:11.312Z,18.26
2023-04-17T14:24:38.712Z,17.73
2023-04-17T14:27:06.403Z,17.72
2023-04-17T14:29:33.798Z,17.76
2023-04-17T14:32:01.279Z,18.06
2023-04-17T14:34:29.572Z,18.49
2023-04-17T14:36:58.160Z,18.82
2023-04-17T14:39:25.776Z,19.03
2023-04-17T14:41:53.595Z,18.96
2023-04-17T14:44:21.121Z,18.87
2023-04-17T14:46:48.833Z,18.62
2023-04-17T14:49:17.018Z,19.24
2023-04-17T14:51:44.384Z,19.47
2023-04-17T14:54:11.810Z,19.58
2023-04-17T14:56:39.913Z,19.75
2023-04-17T14:59:07.329Z,19.35
2023-04-17T15:01:34.915Z,19.73
2023-04-17T15:04:03.758Z,19.55
2023-04-17T15:06:31.296Z,19.81
2023-04-17T15:08:58.672Z,19.93
2023-04-17T15:11:26.479Z,19.88
2023-04-17T15:13:53.852Z,19.19
2023-04-17T15:16:21.297Z,19.13
2023-04-17T15:18:49.613Z,19.36
2023-04-17T15:21:17.387Z,18.97
2023-04-17T15:23:45.087Z,18.16
2023-04-17T15:26:13.051Z,18.72
2023-04-17T15:28:40.586Z,18.97
2023-04-17T15:31:08.048Z,18.80
2023-04-17T15:33:36.321Z,18.85
2023-04-17T15:36:03.805Z,19.11
2023-04-17T15:38:31.180Z,19.23
2023-04-17T15:40:59.163Z,19.39
2023-04-17T15:43:27.036Z,19.19
2023-04-17T15:45:54.758Z,19.28
2023-04-17T15:48:22.479Z,19.55
2023-04-17T15:50:49.912Z,19.81
2023-04-17T15:53:17.324Z,19.89
2023-04-17T15:55:45.015Z,19.98
2023-04-17T15:58:12.375Z,20.04
2023-04-17T16:00:39.896Z,19.87
2023-04-17T16:03:08.065Z,19.78
2023-04-17T16:05:35.718Z,20.19
2023-04-17T16:08:03.107Z,19.76
2023-04-17T16:10:31.005Z,19.80
2023-04-17T16:12:58.393Z,19.76
2023-04-17T16:15:25.903Z,20.01
2023-04-17T16:17:53.620Z,19.65
2023-04-17T16:20:21.032Z,19.93
2023-04-17T16:22:48.463Z,19.73
2023-04-17T16:25:16.463Z,19.33
2023-04-17T16:27:44.077Z,19.72
2023-04-17T16:30:11.694Z,19.54
2023-04-17T16:32:39.482Z,19.66
2023-04-17T16:35:07.526Z,19.75
2023-04-17T16:37:34.928Z,19.25
2023-04-17T16:40:05.161Z,19.18
2023-04-17T16:42:32.766Z,19.54
2023-04-17T16:45:00.377Z,19.17
2023-04-17T16:47:31.377Z,19.29
2023-04-17T16:49:59.018Z,19.18
2023-04-17T16:52:26.442Z,18.93
2023-04-17T16:54:54.175Z,18.25
2023-04-17T16:57:21.720Z,18.74
2023-04-17T16:59:49.320Z,19.06
2023-04-17T17:02:17.013Z,18.49
2023-04-17T17:04:45.817Z,18.70
2023-04-17T17:07:13.503Z,18.05
2023-04-17T17:09:41.223Z,18.48
2023-04-17T17:12:08.611Z,18.57
2023-04-17T17:14:36.208Z,18.33
2023-04-17T17:17:03.908Z,18.51
2023-04-17T17:19:31.352Z,18.61
2023-04-17T17:21:58.763Z,18.01
2023-04-17T17:24:26.757Z,18.29
2023-04-17T17:26:54.247Z,18.02
2023-04-17T17:29:21.761Z,18.29
2023-04-17T17:31:49.557Z,18.33
2023-04-17T17:34:26.056Z,18.16
2023-04-17T17:36:54.990Z,18.45
2023-04-17T17:39:22.545Z,18.39
2023-04-17T17:41:50.018Z,18.46
2023-04-17T17:44:17.736Z,18.41
2023-04-17T17:46:45.295Z,18.56
2023-04-17T17:49:12.954Z,18.19
2023-04-17T17:51:41.850Z,18.08
2023-04-17T17:54:09.592Z,18.36
2023-04-17T17:56:37.177Z,18.50
2023-04-17T17:59:04.913Z,18.76
2023-04-17T18:01:32.685Z,18.91
2023-04-17T18:04:00.611Z,19.07
2023-04-17T18:06:28.564Z,19.17
2023-04-17T18:08:57.917Z,19.22
2023-04-17T18:11:25.842Z,19.16
2023-04-17T18:13:53.260Z,19.20
2023-04-17T18:16:21.037Z,19.25
2023-04-17T18:18:48.791Z,19.28
2023-04-17T18:21:16.177Z,19.30
2023-04-17T18:23:43.638Z,19.29
2023-04-17T18:26:12.947Z,19.18
2023-04-17T18:28:40.692Z,18.79
2023-04-17T18:31:08.220Z,18.21
2023-04-17T18:33:36.288Z,18.62
2023-04-17T18:36:04.670Z,18.64
2023-04-17T18:38:32.270Z,18.85
2023-04-17T18:41:01.290Z,19.03
2023-04-17T18:43:29.133Z,19.12
2023-04-17T18:45:56.791Z,19.19
2023-04-17T18:48:24.679Z,19.26
2023-04-17T18:50:52.221Z,18.95
2023-04-17T18:53:19.773Z,18.92
2023-04-17T18:55:47.467Z,18.97
2023-04-17T18:58:15.026Z,18.42
2023-04-17T19:00:42.395Z,18.81
2023-04-17T19:03:10.371Z,18.48
2023-04-17T19:05:37.986Z,18.19
2023-04-17T19:08:05.516Z,18.29
2023-04-17T19:10:33.700Z,18.36
2023-04-17T19:13:01.482Z,18.31
2023-04-17T19:15:29.105Z,18.44
2023-04-17T19:17:56.959Z,18.57
2023-04-17T19:20:24.578Z,18.42
2023-04-17T19:22:52.088Z,18.34
2023-04-17T19:25:19.926Z,18.70
2023-04-17T19:27:47.308Z,18.84
2023-04-17T19:30:14.810Z,18.90
2023-04-17T19:32:42.867Z,18.87
2023-04-17T19:35:10.632Z,18.99
2023-04-17T19:37:38.155Z,18.81
2023-04-17T19:40:14.160Z,18.95
2023-04-17T19:42:49.521Z,18.47
2023-04-17T19:45:17.488Z,18.60
2023-04-17T19:47:45.214Z,18.41
2023-04-17T19:50:12.832Z,17.58
2023-04-17T19:52:43.085Z,17.73
2023-04-17T19:55:10.654Z,17.82
2023-04-17T19:57:39.202Z,17.95
2023-04-17T20:00:07.647Z,18.22
2023-04-17T20:02:40.565Z,17.79
2023-04-17T20:05:09.071Z,17.40
2023-04-17T20:07:37.170Z,17.05
2023-04-17T20:10:05.395Z,17.49
2023-04-17T20:12:33.245Z,17.45
2023-04-17T20:15:00.864Z,17.64
2023-04-17T20:17:28.418Z,16.89
2023-04-17T20:19:56.142Z,17.13
2023-04-17T20:22:23.702Z,17.43
2023-04-17T20:24:51.311Z,17.43
2023-04-17T20:27:19.213Z,16.94
2023-04-17T20:29:46.772Z,16.67
2023-04-17T20:32:14.174Z,16.62
2023-04-17T20:34:41.818Z,17.23
2023-04-17T20:37:09.582Z,17.15
2023-04-17T20:39:37.012Z,16.94
2023-04-17T20:42:04.917Z,17.11
2023-04-17T20:44:32.898Z,17.34
2023-04-17T20:47:00.265Z,17.61
2023-04-17T20:49:28.303Z,17.95
2023-04-17T20:51:55.818Z,17.87
2023-04-17T20:54:23.405Z,17.86
2023-04-17T20:56:51.193Z,17.98
2023-04-17T20:59:18.671Z,18.33
2023-04-17T21:01:46.201Z,18.07
2023-04-17T21:04:14.183Z,18.25
2023-04-17T21:06:41.931Z,18.30
2023-04-17T21:09:09.716Z,18.53
2023-04-17T21:11:37.445Z,18.26
2023-04-17T21:14:04.888Z,18.50
2023-04-17T21:16:32.340Z,18.53
2023-04-17T21:19:00.167Z,18.70
2023-04-17T21:21:27.567Z,18.77
2023-04-17T21:23:54.941Z,18.72
2023-04-17T21:26:22.668Z,18.74
2023-04-17T21:28:50.046Z,18.65
2023-04-17T21:31:17.493Z,18.73
2023-04-17T21:33:45.452Z,18.81
2023-04-17T21:36:13.992Z,18.76
2023-04-17T21:38:41.466Z,18.74
2023-04-17T21:41:09.306Z,18.82
2023-04-17T21:43:36.661Z,18.55
2023-04-17T21:46:04.313Z,18.28
2023-04-17T21:48:31.988Z,17.85
2023-04-17T21:51:04.029Z,17.99
2023-04-17T21:53:36.312Z,17.67
2023-04-17T21:56:06.279Z,16.96
2023-04-17T21:58:34.779Z,17.09
2023-04-17T22:01:03.178Z,17.74
2023-04-17T22:03:30.902Z,17.61
2023-04-17T22:05:58.292Z,17.88
2023-04-17T22:08:25.681Z,17.63
2023-04-17T22:10:53.327Z,17.16
2023-04-17T22:13:20.737Z,17.14
2023-04-17T22:15:49.253Z,17.58
2023-04-17T22:18:17.060Z,16.72
2023-04-17T22:20:44.598Z,17.24
2023-04-17T22:23:11.987Z,17.44
2023-04-17T22:25:39.653Z,17.22
2023-04-17T22:28:07.405Z,17.39
2023-04-17T22:30:34.832Z,17.31
2023-04-17T22:33:03.238Z,16.23
2023-04-17T22:35:30.770Z,16.76
2023-04-17T22:37:58.307Z,16.99
2023-04-17T22:40:26.050Z,17.22
2023-04-17T22:42:53.458Z,17.02
2023-04-17T22:45:20.861Z,17.35
2023-04-17T22:47:48.541Z,17.55
2023-04-17T22:50:17.595Z,17.78
2023-04-17T22:52:45.023Z,17.34
2023-04-17T22:55:12.766Z,17.59
2023-04-17T22:57:40.685Z,17.48
2023-04-17T23:00:09.833Z,17.29
2023-04-17T23:02:37.843Z,17.25
2023-04-17T23:05:06.445Z,17.51
2023-04-17T23:07:33.909Z,17.77
2023-04-17T23:10:01.611Z,17.78
2023-04-17T23:12:29.032Z,17.71
2023-04-17T23:14:57.814Z,17.94
2023-04-17T23:17:25.493Z,16.81
2023-04-17T23:19:53.333Z,17.60
2023-04-17T23:22:20.839Z,17.67
2023-04-17T23:24:48.736Z,17.65
2023-04-17T23:27:16.127Z,17.83
2023-04-17T23:29:43.548Z,17.65
2023-04-17T23:32:11.215Z,17.51
2023-04-17T23:34:38.676Z,17.69
2023-04-17T23:37:06.194Z,17.18
2023-04-17T23:39:34.866Z,17.05
2023-04-17T23:42:07.236Z,16.82
2023-04-17T23:44:35.647Z,16.93
2023-04-17T23:47:03.641Z,17.08
2023-04-17T23:49:31.173Z,16.88
2023-04-17T23:51:58.819Z,17.00
2023-04-17T23:54:26.268Z,16.95
2023-04-17T23:56:53.888Z,16.31
2023-04-17T23:59:21.596Z,16.50
